sensor_id;sensor_type;location;lat;lon;timestamp;pressure;altitude;pressure_sealevel;temperature;humidity
8061;BME280;4073;42.626;25.386;2023-04-21T00:00:59;96730.31;;;12.36;100.00
8061;BME280;4073;42.626;25.386;2023-04-21T00:03:25;96762.00;;;12.48;100.00
8061;BME280;4073;42.626;25.386;2023-04-21T00:05:55;96734.53;;;12.24;100.00
8061;BME280;4073;42.626;25.386;2023-04-21T00:08:23;96750.03;;;12.27;100.00
8061;BME280;4073;42.626;25.386;2023-04-21T00:10:49;96752.50;;;12.23;100.00
8061;BME280;4073;42.626;25.386;2023-04-21T00:13:14;96724.63;;;12.06;100.00
8061;BME280;4073;42.626;25.386;2023-04-21T00:15:40;96728.03;;;12.11;100.00
8061;BME280;4073;42.626;25.386;2023-04-21T00:18:07;96742.72;;;12.14;100.00
8061;BME280;4073;42.626;25.386;2023-04-21T00:20:34;96711.78;;;11.89;100.00
8061;BME280;4073;42.626;25.386;2023-04-21T00:23:01;96732.25;;;11.99;100.00
8061;BME280;4073;42.626;25.386;2023-04-21T00:25:27;96727.38;;;12.01;100.00
8061;BME280;4073;42.626;25.386;2023-04-21T00:27:53;96703.31;;;11.82;100.00
8061;BME280;4073;42.626;25.386;2023-04-21T00:30:18;96726.19;;;11.93;100.00
8061;BME280;4073;42.626;25.386;2023-04-21T00:32:44;96721.69;;;11.89;100.00
8061;BME280;4073;42.626;25.386;2023-04-21T00:35:09;96726.81;;;11.85;100.00
8061;BME280;4073;42.626;25.386;2023-04-21T00:37:35;96717.28;;;11.79;100.00
8061;BME280;4073;42.626;25.386;2023-04-21T00:40:01;96689.13;;;11.58;100.00
8061;BME280;4073;42.626;25.386;2023-04-21T00:42:28;96718.78;;;11.67;100.00
8061;BME280;4073;42.626;25.386;2023-04-21T00:44:53;96720.66;;;11.66;100.00
8061;BME280;4073;42.626;25.386;2023-04-21T00:47:19;96724.94;;;11.67;100.00
8061;BME280;4073;42.626;25.386;2023-04-21T00:49:45;96692.47;;;11.50;100.00
8061;BME280;4073;42.626;25.386;2023-04-21T00:52:11;96717.13;;;11.71;100.00
8061;BME280;4073;42.626;25.386;2023-04-21T00:54:38;96714.16;;;11.72;100.00
8061;BME280;4073;42.626;25.386;2023-04-21T00:57:04;96712.25;;;11.73;100.00
8061;BME280;4073;42.626;25.386;2023-04-21T00:59:32;96712.25;;;11.73;100.00
8061;BME280;4073;42.626;25.386;2023-04-21T01:01:57;96678.53;;;11.53;100.00
8061;BME280;4073;42.626;25.386;2023-04-21T01:04:23;96712.78;;;11.75;100.00
8061;BME280;4073;42.626;25.386;2023-04-21T01:06:48;96702.84;;;11.75;100.00
8061;BME280;4073;42.626;25.386;2023-04-21T01:09:15;96703.38;;;11.77;100.00
8061;BME280;4073;42.626;25.386;2023-04-21T01:11:40;96699.09;;;11.76;100.00
8061;BME280;4073;42.626;25.386;2023-04-21T01:14:06;96688.88;;;11.78;100.00
8061;BME280;4073;42.626;25.386;2023-04-21T01:16:31;96690.78;;;11.78;100.00
8061;BME280;4073;42.626;25.386;2023-04-21T01:19:01;96670.66;;;11.62;100.00
8061;BME280;4073;42.626;25.386;2023-04-21T01:21:26;96685.78;;;11.71;100.00
8061;BME280;4073;42.626;25.386;2023-04-21T01:23:53;96690.94;;;11.68;100.00
8061;BME280;4073;42.626;25.386;2023-04-21T01:26:19;96700.31;;;11.65;100.00
8061;BME280;4073;42.626;25.386;2023-04-21T01:28:46;96693.66;;;11.63;100.00
8061;BME280;4073;42.626;25.386;2023-04-21T01:31:16;96688.06;;;11.59;100.00
8061;BME280;4073;42.626;25.386;2023-04-21T01:33:41;96693.19;;;11.56;100.00
8061;BME280;4073;42.626;25.386;2023-04-21T01:36:08;96695.44;;;11.49;100.00
8061;BME280;4073;42.626;25.386;2023-04-21T01:38:38;96662.88;;;11.23;100.00
8061;BME280;4073;42.626;25.386;2023-04-21T01:41:04;96687.06;;;11.37;100.00
8061;BME280;4073;42.626;25.386;2023-04-21T01:43:30;96688.69;;;11.33;100.00
8061;BME280;4073;42.626;25.386;2023-04-21T01:45:55;96688.25;;;11.26;100.00
8061;BME280;4073;42.626;25.386;2023-04-21T01:48:20;96682.88;;;11.26;100.00
8061;BME280;4073;42.626;25.386;2023-04-21T01:50:46;96686.66;;;11.25;100.00
8061;BME280;4073;42.626;25.386;2023-04-21T01:53:11;96686.44;;;11.21;100.00
8061;BME280;4073;42.626;25.386;2023-04-21T01:55:37;96695.94;;;11.09;100.00
8061;BME280;4073;42.626;25.386;2023-04-21T01:58:03;96685.44;;;10.94;100.00
8061;BME280;4073;42.626;25.386;2023-04-21T02:00:28;96677.53;;;10.84;100.00
8061;BME280;4073;42.626;25.386;2023-04-21T02:02:53;96679.97;;;10.80;100.00
8061;BME280;4073;42.626;25.386;2023-04-21T02:05:19;96674.50;;;10.67;100.00
8061;BME280;4073;42.626;25.386;2023-04-21T02:07:44;96680.75;;;10.57;100.00
8061;BME280;4073;42.626;25.386;2023-04-21T02:10:10;96673.59;;;10.52;100.00
8061;BME280;4073;42.626;25.386;2023-04-21T02:12:36;96671.47;;;10.49;100.00
8061;BME280;4073;42.626;25.386;2023-04-21T02:15:02;96667.25;;;10.43;100.00
8061;BME280;4073;42.626;25.386;2023-04-21T02:17:27;96681.16;;;10.45;100.00
8061;BME280;4073;42.626;25.386;2023-04-21T02:19:53;96676.19;;;10.34;100.00
8061;BME280;4073;42.626;25.386;2023-04-21T02:22:18;96675.16;;;10.30;100.00
8061;BME280;4073;42.626;25.386;2023-04-21T02:24:44;96673.88;;;10.22;100.00
8061;BME280;4073;42.626;25.386;2023-04-21T02:27:09;96676.53;;;10.22;100.00
8061;BME280;4073;42.626;25.386;2023-04-21T02:29:34;96675.78;;;10.17;100.00
8061;BME280;4073;42.626;25.386;2023-04-21T02:32:00;96677.66;;;10.16;100.00
8061;BME280;4073;42.626;25.386;2023-04-21T02:34:25;96680.59;;;10.15;100.00
8061;BME280;4073;42.626;25.386;2023-04-21T02:36:51;96673.44;;;10.10;100.00
8061;BME280;4073;42.626;25.386;2023-04-21T02:39:16;96639.09;;;9.94;100.00
8061;BME280;4073;42.626;25.386;2023-04-21T02:41:42;96664.91;;;10.08;100.00
8061;BME280;4073;42.626;25.386;2023-04-21T02:44:07;96665.69;;;10.09;100.00
8061;BME280;4073;42.626;25.386;2023-04-21T02:46:32;96660.66;;;10.02;100.00
8061;BME280;4073;42.626;25.386;2023-04-21T02:48:58;96666.84;;;9.98;100.00
8061;BME280;4073;42.626;25.386;2023-04-21T02:51:23;96631.31;;;9.69;100.00
8061;BME280;4073;42.626;25.386;2023-04-21T02:53:49;96664.53;;;9.86;100.00
8061;BME280;4073;42.626;25.386;2023-04-21T02:56:15;96670.19;;;9.80;100.00
8061;BME280;4073;42.626;25.386;2023-04-21T02:58:40;96664.38;;;9.73;100.00
8061;BME280;4073;42.626;25.386;2023-04-21T03:01:06;96642.66;;;9.46;100.00
8061;BME280;4073;42.626;25.386;2023-04-21T03:03:32;96679.66;;;9.62;100.00
8061;BME280;4073;42.626;25.386;2023-04-21T03:06:02;96674.09;;;9.54;100.00
8061;BME280;4073;42.626;25.386;2023-04-21T03:08:28;96676.25;;;9.52;100.00
8061;BME280;4073;42.626;25.386;2023-04-21T03:10:54;96671.75;;;9.47;100.00
8061;BME280;4073;42.626;25.386;2023-04-21T03:13:20;96688.03;;;9.46;100.00
8061;BME280;4073;42.626;25.386;2023-04-21T03:15:45;96656.69;;;9.23;100.00
8061;BME280;4073;42.626;25.386;2023-04-21T03:18:11;96670.28;;;9.21;100.00
8061;BME280;4073;42.626;25.386;2023-04-21T03:20:36;96659.38;;;9.13;100.00
8061;BME280;4073;42.626;25.386;2023-04-21T03:23:02;96662.34;;;9.11;100.00
8061;BME280;4073;42.626;25.386;2023-04-21T03:25:27;96686.81;;;9.23;100.00
8061;BME280;4073;42.626;25.386;2023-04-21T03:27:54;96689.78;;;9.17;100.00
8061;BME280;4073;42.626;25.386;2023-04-21T03:30:20;96693.25;;;9.17;100.00
8061;BME280;4073;42.626;25.386;2023-04-21T03:32:45;96692.25;;;9.03;100.00
8061;BME280;4073;42.626;25.386;2023-04-21T03:35:11;96687.44;;;9.00;100.00
8061;BME280;4073;42.626;25.386;2023-04-21T03:37:36;96688.25;;;8.96;100.00
8061;BME280;4073;42.626;25.386;2023-04-21T03:40:03;96679.50;;;8.90;100.00
8061;BME280;4073;42.626;25.386;2023-04-21T03:42:30;96682.16;;;8.90;100.00
8061;BME280;4073;42.626;25.386;2023-04-21T03:45:00;96674.44;;;8.89;100.00
8061;BME280;4073;42.626;25.386;2023-04-21T03:47:25;96684.00;;;8.95;100.00
8061;BME280;4073;42.626;25.386;2023-04-21T03:49:51;96681.88;;;8.92;100.00
8061;BME280;4073;42.626;25.386;2023-04-21T03:52:16;96689.06;;;8.96;100.00
8061;BME280;4073;42.626;25.386;2023-04-21T03:54:41;96685.31;;;9.02;100.00
8061;BME280;4073;42.626;25.386;2023-04-21T03:57:07;96674.94;;;9.01;100.00
8061;BME280;4073;42.626;25.386;2023-04-21T03:59:32;96678.38;;;9.01;100.00
8061;BME280;4073;42.626;25.386;2023-04-21T04:01:58;96658.50;;;8.74;100.00
8061;BME280;4073;42.626;25.386;2023-04-21T04:04:23;96689.63;;;8.93;100.00
8061;BME280;4073;42.626;25.386;2023-04-21T04:06:49;96705.13;;;8.76;100.00
8061;BME280;4073;42.626;25.386;2023-04-21T04:09:14;96699.50;;;8.88;100.00
8061;BME280;4073;42.626;25.386;2023-04-21T04:11:39;96677.66;;;8.76;100.00
8061;BME280;4073;42.626;25.386;2023-04-21T04:14:05;96705.81;;;9.07;100.00
8061;BME280;4073;42.626;25.386;2023-04-21T04:16:33;96683.19;;;8.99;100.00
8061;BME280;4073;42.626;25.386;2023-04-21T04:18:58;96703.13;;;9.12;100.00
8061;BME280;4073;42.626;25.386;2023-04-21T04:21:23;96706.84;;;9.21;100.00
8061;BME280;4073;42.626;25.386;2023-04-21T04:23:50;96706.28;;;9.24;100.00
8061;BME280;4073;42.626;25.386;2023-04-21T04:26:16;96697.44;;;9.28;100.00
8061;BME280;4073;42.626;25.386;2023-04-21T04:28:43;96703.56;;;9.34;100.00
8061;BME280;4073;42.626;25.386;2023-04-21T04:31:08;96702.47;;;9.40;100.00
8061;BME280;4073;42.626;25.386;2023-04-21T04:33:33;96705.13;;;9.40;100.00
8061;BME280;4073;42.626;25.386;2023-04-21T04:35:59;96695.81;;;9.37;100.00
8061;BME280;4073;42.626;25.386;2023-04-21T04:38:24;96715.53;;;9.46;100.00
8061;BME280;4073;42.626;25.386;2023-04-21T04:40:54;96708.50;;;9.60;100.00
8061;BME280;4073;42.626;25.386;2023-04-21T04:43:19;96709.53;;;9.64;100.00
8061;BME280;4073;42.626;25.386;2023-04-21T04:45:45;96707.91;;;9.68;100.00
8061;BME280;4073;42.626;25.386;2023-04-21T04:48:11;96715.03;;;9.83;100.00
8061;BME280;4073;42.626;25.386;2023-04-21T04:50:36;96684.69;;;9.69;100.00
8061;BME280;4073;42.626;25.386;2023-04-21T04:53:02;96715.94;;;10.02;100.00
8061;BME280;4073;42.626;25.386;2023-04-21T04:55:27;96725.47;;;10.18;100.00
8061;BME280;4073;42.626;25.386;2023-04-21T04:57:53;96723.53;;;10.28;100.00
8061;BME280;4073;42.626;25.386;2023-04-21T05:00:18;96711.41;;;10.36;100.00
8061;BME280;4073;42.626;25.386;2023-04-21T05:02:44;96714.53;;;10.48;100.00
8061;BME280;4073;42.626;25.386;2023-04-21T05:05:09;96718.69;;;10.59;100.00
8061;BME280;4073;42.626;25.386;2023-04-21T05:07:35;96702.72;;;10.54;100.00
8061;BME280;4073;42.626;25.386;2023-04-21T05:10:01;96714.63;;;10.90;100.00
8061;BME280;4073;42.626;25.386;2023-04-21T05:12:29;96717.19;;;11.00;100.00
8061;BME280;4073;42.626;25.386;2023-04-21T05:14:55;96721.41;;;11.06;100.00
8061;BME280;4073;42.626;25.386;2023-04-21T05:17:21;96722.13;;;11.12;100.00
8061;BME280;4073;42.626;25.386;2023-04-21T05:19:46;96717.03;;;11.15;100.00
8061;BME280;4073;42.626;25.386;2023-04-21T05:22:11;96713.53;;;11.15;100.00
8061;BME280;4073;42.626;25.386;2023-04-21T05:24:40;96702.63;;;11.11;100.00
8061;BME280;4073;42.626;25.386;2023-04-21T05:27:05;96689.53;;;11.10;100.00
8061;BME280;4073;42.626;25.386;2023-04-21T05:29:31;96721.47;;;11.43;100.00
8061;BME280;4073;42.626;25.386;2023-04-21T05:31:58;96717.25;;;11.61;100.00
8061;BME280;4073;42.626;25.386;2023-04-21T05:34:24;96721.03;;;11.78;100.00
8061;BME280;4073;42.626;25.386;2023-04-21T05:36:49;96719.28;;;11.87;100.00
8061;BME280;4073;42.626;25.386;2023-04-21T05:39:16;96716.22;;;11.94;100.00
8061;BME280;4073;42.626;25.386;2023-04-21T05:41:42;96716.59;;;12.06;100.00
8061;BME280;4073;42.626;25.386;2023-04-21T05:44:08;96688.28;;;12.00;100.00
8061;BME280;4073;42.626;25.386;2023-04-21T05:46:33;96724.53;;;12.29;100.00
8061;BME280;4073;42.626;25.386;2023-04-21T05:48:59;96692.94;;;12.26;100.00
8061;BME280;4073;42.626;25.386;2023-04-21T05:51:26;96706.47;;;12.67;100.00
8061;BME280;4073;42.626;25.386;2023-04-21T05:53:52;96709.22;;;13.21;100.00
8061;BME280;4073;42.626;25.386;2023-04-21T05:56:17;96709.34;;;13.65;100.00
8061;BME280;4073;42.626;25.386;2023-04-21T05:58:43;96730.34;;;13.99;100.00
8061;BME280;4073;42.626;25.386;2023-04-21T06:01:08;96722.22;;;14.26;100.00
8061;BME280;4073;42.626;25.386;2023-04-21T06:03:34;96724.56;;;14.41;100.00
8061;BME280;4073;42.626;25.386;2023-04-21T06:06:00;96722.16;;;14.61;100.00
8061;BME280;4073;42.626;25.386;2023-04-21T06:08:26;96702.63;;;14.78;100.00
8061;BME280;4073;42.626;25.386;2023-04-21T06:10:52;96708.09;;;14.95;100.00
8061;BME280;4073;42.626;25.386;2023-04-21T06:13:17;96709.03;;;14.90;100.00
8061;BME280;4073;42.626;25.386;2023-04-21T06:15:43;96708.94;;;14.73;100.00
8061;BME280;4073;42.626;25.386;2023-04-21T06:18:08;96704.75;;;14.59;100.00
8061;BME280;4073;42.626;25.386;2023-04-21T06:20:34;96717.41;;;14.36;100.00
8061;BME280;4073;42.626;25.386;2023-04-21T06:23:00;96707.31;;;14.42;100.00
8061;BME280;4073;42.626;25.386;2023-04-21T06:25:25;96708.53;;;14.36;100.00
8061;BME280;4073;42.626;25.386;2023-04-21T06:27:51;96706.47;;;14.55;100.00
8061;BME280;4073;42.626;25.386;2023-04-21T06:30:16;96688.44;;;14.64;100.00
8061;BME280;4073;42.626;25.386;2023-04-21T06:32:42;96714.34;;;15.12;100.00
8061;BME280;4073;42.626;25.386;2023-04-21T06:35:10;96691.28;;;15.28;100.00
8061;BME280;4073;42.626;25.386;2023-04-21T06:37:36;96715.13;;;15.52;100.00
8061;BME280;4073;42.626;25.386;2023-04-21T06:40:01;96705.47;;;15.51;100.00
8061;BME280;4073;42.626;25.386;2023-04-21T06:42:27;96704.53;;;15.56;100.00
8061;BME280;4073;42.626;25.386;2023-04-21T06:44:52;96690.03;;;15.34;100.00
8061;BME280;4073;42.626;25.386;2023-04-21T06:47:18;96714.66;;;15.50;100.00
8061;BME280;4073;42.626;25.386;2023-04-21T06:49:43;96711.50;;;15.57;100.00
8061;BME280;4073;42.626;25.386;2023-04-21T06:52:09;96717.22;;;15.72;100.00
8061;BME280;4073;42.626;25.386;2023-04-21T06:54:35;96720.88;;;15.85;100.00
8061;BME280;4073;42.626;25.386;2023-04-21T06:57:01;96714.09;;;16.04;100.00
8061;BME280;4073;42.626;25.386;2023-04-21T06:59:26;96718.88;;;16.07;100.00
8061;BME280;4073;42.626;25.386;2023-04-21T07:01:51;96694.75;;;16.02;100.00
8061;BME280;4073;42.626;25.386;2023-04-21T07:04:18;96720.91;;;16.27;100.00
8061;BME280;4073;42.626;25.386;2023-04-21T07:06:43;96697.13;;;16.21;100.00
8061;BME280;4073;42.626;25.386;2023-04-21T07:09:09;96696.16;;;16.25;100.00
8061;BME280;4073;42.626;25.386;2023-04-21T07:11:34;96684.56;;;16.25;100.00
8061;BME280;4073;42.626;25.386;2023-04-21T07:14:00;96702.38;;;16.43;100.00
8061;BME280;4073;42.626;25.386;2023-04-21T07:16:27;96684.75;;;16.28;100.00
8061;BME280;4073;42.626;25.386;2023-04-21T07:18:52;96713.31;;;16.46;100.00
8061;BME280;4073;42.626;25.386;2023-04-21T07:21:18;96689.63;;;16.35;100.00
8061;BME280;4073;42.626;25.386;2023-04-21T07:23:43;96693.75;;;16.41;100.00
8061;BME280;4073;42.626;25.386;2023-04-21T07:26:09;96716.41;;;16.82;100.00
8061;BME280;4073;42.626;25.386;2023-04-21T07:28:34;96720.00;;;17.03;100.00
8061;BME280;4073;42.626;25.386;2023-04-21T07:31:00;96724.09;;;17.09;100.00
8061;BME280;4073;42.626;25.386;2023-04-21T07:33:25;96719.34;;;17.06;100.00
8061;BME280;4073;42.626;25.386;2023-04-21T07:35:51;96707.00;;;16.88;100.00
8061;BME280;4073;42.626;25.386;2023-04-21T07:38:16;96723.31;;;17.09;100.00
8061;BME280;4073;42.626;25.386;2023-04-21T07:40:42;96721.56;;;17.50;88.25
8061;BME280;4073;42.626;25.386;2023-04-21T07:43:07;96723.59;;;17.82;79.11
8061;BME280;4073;42.626;25.386;2023-04-21T07:45:33;96701.91;;;17.91;78.86
8061;BME280;4073;42.626;25.386;2023-04-21T07:47:58;96726.44;;;18.68;73.54
8061;BME280;4073;42.626;25.386;2023-04-21T07:50:24;96735.06;;;19.39;66.56
8061;BME280;4073;42.626;25.386;2023-04-21T07:52:49;96726.44;;;19.97;61.36
8061;BME280;4073;42.626;25.386;2023-04-21T07:55:15;96706.59;;;20.32;59.19
8061;BME280;4073;42.626;25.386;2023-04-21T07:57:40;96704.53;;;20.69;56.28
8061;BME280;4073;42.626;25.386;2023-04-21T08:00:07;96691.50;;;20.90;55.54
8061;BME280;4073;42.626;25.386;2023-04-21T08:02:33;96716.47;;;21.39;55.22
8061;BME280;4073;42.626;25.386;2023-04-21T08:04:58;96717.50;;;21.65;53.29
8061;BME280;4073;42.626;25.386;2023-04-21T08:07:24;96707.41;;;21.81;53.28
8061;BME280;4073;42.626;25.386;2023-04-21T08:09:49;96714.63;;;21.74;52.47
8061;BME280;4073;42.626;25.386;2023-04-21T08:12:15;96714.59;;;21.58;54.32
8061;BME280;4073;42.626;25.386;2023-04-21T08:14:41;96714.28;;;21.44;53.97
8061;BME280;4073;42.626;25.386;2023-04-21T08:17:06;96707.31;;;21.00;51.26
8061;BME280;4073;42.626;25.386;2023-04-21T08:19:32;96712.22;;;20.95;50.53
8061;BME280;4073;42.626;25.386;2023-04-21T08:21:57;96712.25;;;21.26;49.81
8061;BME280;4073;42.626;25.386;2023-04-21T08:24:23;96691.56;;;21.21;48.86
8061;BME280;4073;42.626;25.386;2023-04-21T08:26:49;96715.78;;;20.83;50.25
8061;BME280;4073;42.626;25.386;2023-04-21T08:29:14;96715.84;;;20.87;49.69
8061;BME280;4073;42.626;25.386;2023-04-21T08:31:40;96698.38;;;21.15;48.85
8061;BME280;4073;42.626;25.386;2023-04-21T08:34:06;96710.13;;;21.19;46.87
8061;BME280;4073;42.626;25.386;2023-04-21T08:36:31;96711.44;;;21.56;46.34
8061;BME280;4073;42.626;25.386;2023-04-21T08:38:57;96710.72;;;21.59;46.16
8061;BME280;4073;42.626;25.386;2023-04-21T08:41:24;96700.81;;;21.67;46.73
8061;BME280;4073;42.626;25.386;2023-04-21T08:43:50;96696.09;;;21.64;45.18
8061;BME280;4073;42.626;25.386;2023-04-21T08:46:16;96684.53;;;21.51;45.70
8061;BME280;4073;42.626;25.386;2023-04-21T08:48:41;96686.91;;;21.87;45.19
8061;BME280;4073;42.626;25.386;2023-04-21T08:51:08;96699.81;;;22.25;44.45
8061;BME280;4073;42.626;25.386;2023-04-21T08:53:37;96693.34;;;22.33;43.73
8061;BME280;4073;42.626;25.386;2023-04-21T08:56:05;96702.81;;;22.39;46.26
8061;BME280;4073;42.626;25.386;2023-04-21T08:58:31;96697.41;;;22.58;44.31
8061;BME280;4073;42.626;25.386;2023-04-21T09:00:56;96699.34;;;22.57;45.08
8061;BME280;4073;42.626;25.386;2023-04-21T09:03:26;96695.03;;;22.56;44.24
8061;BME280;4073;42.626;25.386;2023-04-21T09:06:00;96708.28;;;22.77;45.97
8061;BME280;4073;42.626;25.386;2023-04-21T09:08:26;96710.72;;;22.82;45.29
8061;BME280;4073;42.626;25.386;2023-04-21T09:10:53;96704.41;;;22.78;44.82
8061;BME280;4073;42.626;25.386;2023-04-21T09:13:19;96707.09;;;22.97;45.11
8061;BME280;4073;42.626;25.386;2023-04-21T09:15:49;96691.88;;;22.73;44.29
8061;BME280;4073;42.626;25.386;2023-04-21T09:18:21;96676.22;;;21.79;46.75
8061;BME280;4073;42.626;25.386;2023-04-21T09:20:50;96699.78;;;21.40;46.91
8061;BME280;4073;42.626;25.386;2023-04-21T09:23:16;96697.56;;;20.56;48.96
8061;BME280;4073;42.626;25.386;2023-04-21T09:25:43;96700.13;;;20.37;50.75
8061;BME280;4073;42.626;25.386;2023-04-21T09:28:13;96702.09;;;20.24;52.53
8061;BME280;4073;42.626;25.386;2023-04-21T09:30:40;96704.75;;;20.36;51.83
8061;BME280;4073;42.626;25.386;2023-04-21T09:33:07;96697.38;;;20.49;52.63
8061;BME280;4073;42.626;25.386;2023-04-21T09:35:34;96691.94;;;20.21;51.60
8061;BME280;4073;42.626;25.386;2023-04-21T09:38:01;96676.44;;;20.10;52.24
8061;BME280;4073;42.626;25.386;2023-04-21T09:40:29;96691.59;;;20.23;53.49
8061;BME280;4073;42.626;25.386;2023-04-21T09:42:54;96696.66;;;20.24;52.03
8061;BME280;4073;42.626;25.386;2023-04-21T09:45:27;96687.44;;;20.13;51.33
8061;BME280;4073;42.626;25.386;2023-04-21T09:47:57;96680.44;;;20.00;51.52
8061;BME280;4073;42.626;25.386;2023-04-21T09:50:25;96663.63;;;19.83;51.46
8061;BME280;4073;42.626;25.386;2023-04-21T09:52:52;96668.97;;;20.07;52.07
8061;BME280;4073;42.626;25.386;2023-04-21T09:55:21;96668.97;;;20.47;50.32
8061;BME280;4073;42.626;25.386;2023-04-21T09:57:50;96668.63;;;20.48;49.58
8061;BME280;4073;42.626;25.386;2023-04-21T10:00:17;96665.84;;;21.34;48.53
8061;BME280;4073;42.626;25.386;2023-04-21T10:02:50;96663.44;;;21.79;46.21
8061;BME280;4073;42.626;25.386;2023-04-21T10:05:15;96652.28;;;22.03;45.11
8061;BME280;4073;42.626;25.386;2023-04-21T10:07:43;96659.41;;;22.65;44.69
8061;BME280;4073;42.626;25.386;2023-04-21T10:10:26;96661.19;;;22.99;43.44
8061;BME280;4073;42.626;25.386;2023-04-21T10:12:52;96650.22;;;22.96;43.46
8061;BME280;4073;42.626;25.386;2023-04-21T10:18:10;96640.41;;;21.92;44.33
8061;BME280;4073;42.626;25.386;2023-04-21T10:21:03;96657.66;;;22.19;46.78
8061;BME280;4073;42.626;25.386;2023-04-21T10:28:43;96660.38;;;20.17;51.59
8061;BME280;4073;42.626;25.386;2023-04-21T10:33:40;96657.91;;;19.60;53.80
8061;BME280;4073;42.626;25.386;2023-04-21T10:36:10;96658.25;;;19.71;54.30
8061;BME280;4073;42.626;25.386;2023-04-21T10:38:41;96644.25;;;19.21;54.98
8061;BME280;4073;42.626;25.386;2023-04-21T10:41:25;96657.25;;;19.27;56.50
8061;BME280;4073;42.626;25.386;2023-04-21T10:43:57;96631.34;;;19.06;55.68
8061;BME280;4073;42.626;25.386;2023-04-21T10:46:46;96653.84;;;19.30;55.50
8061;BME280;4073;42.626;25.386;2023-04-21T10:56:54;96669.97;;;19.03;57.06
8061;BME280;4073;42.626;25.386;2023-04-21T10:59:21;96677.44;;;19.18;57.25
8061;BME280;4073;42.626;25.386;2023-04-21T11:01:46;96668.75;;;19.12;56.30
8061;BME280;4073;42.626;25.386;2023-04-21T11:04:21;96646.50;;;19.07;55.95
8061;BME280;4073;42.626;25.386;2023-04-21T11:07:06;96664.38;;;19.44;56.48
8061;BME280;4073;42.626;25.386;2023-04-21T11:09:35;96672.81;;;19.54;54.48
8061;BME280;4073;42.626;25.386;2023-04-21T11:12:09;96666.16;;;19.64;55.86
8061;BME280;4073;42.626;25.386;2023-04-21T11:14:37;96661.78;;;19.99;55.16
8061;BME280;4073;42.626;25.386;2023-04-21T11:17:04;96663.34;;;20.00;55.14
8061;BME280;4073;42.626;25.386;2023-04-21T11:19:33;96663.53;;;19.79;56.01
8061;BME280;4073;42.626;25.386;2023-04-21T11:21:59;96658.78;;;19.64;57.08
8061;BME280;4073;42.626;25.386;2023-04-21T11:24:24;96666.28;;;19.55;57.53
8061;BME280;4073;42.626;25.386;2023-04-21T11:26:50;96667.97;;;19.24;57.29
8061;BME280;4073;42.626;25.386;2023-04-21T11:29:16;96638.78;;;18.85;57.11
8061;BME280;4073;42.626;25.386;2023-04-21T11:31:43;96663.63;;;18.87;57.93
8061;BME280;4073;42.626;25.386;2023-04-21T11:34:10;96648.56;;;18.65;58.65
8061;BME280;4073;42.626;25.386;2023-04-21T11:36:39;96663.16;;;18.85;58.87
8061;BME280;4073;42.626;25.386;2023-04-21T11:39:10;96653.13;;;18.85;59.01
8061;BME280;4073;42.626;25.386;2023-04-21T11:41:40;96639.81;;;19.04;58.16
8061;BME280;4073;42.626;25.386;2023-04-21T11:44:07;96662.19;;;19.01;57.26
8061;BME280;4073;42.626;25.386;2023-04-21T11:46:32;96662.09;;;19.10;57.95
8061;BME280;4073;42.626;25.386;2023-04-21T11:51:38;96635.56;;;19.27;56.70
8061;BME280;4073;42.626;25.386;2023-04-21T11:54:05;96638.06;;;19.84;55.48
8061;BME280;4073;42.626;25.386;2023-04-21T11:56:41;96672.00;;;20.73;52.81
8061;BME280;4073;42.626;25.386;2023-04-21T11:59:14;96661.03;;;21.12;50.08
8061;BME280;4073;42.626;25.386;2023-04-21T12:04:16;96651.16;;;20.77;49.55
8061;BME280;4073;42.626;25.386;2023-04-21T12:06:43;96669.31;;;20.88;50.87
8061;BME280;4073;42.626;25.386;2023-04-21T12:09:16;96668.97;;;20.90;48.83
8061;BME280;4073;42.626;25.386;2023-04-21T12:11:41;96639.34;;;20.85;48.85
8061;BME280;4073;42.626;25.386;2023-04-21T12:14:07;96653.41;;;21.18;50.58
8061;BME280;4073;42.626;25.386;2023-04-21T12:16:36;96640.25;;;21.20;49.04
8061;BME280;4073;42.626;25.386;2023-04-21T12:19:02;96624.03;;;21.08;47.98
8061;BME280;4073;42.626;25.386;2023-04-21T12:21:27;96640.22;;;21.51;48.51
8061;BME280;4073;42.626;25.386;2023-04-21T12:23:53;96634.25;;;21.45;47.00
8061;BME280;4073;42.626;25.386;2023-04-21T12:26:20;96635.84;;;21.31;47.12
8061;BME280;4073;42.626;25.386;2023-04-21T12:28:46;96641.47;;;21.07;48.23
8061;BME280;4073;42.626;25.386;2023-04-21T12:31:12;96643.50;;;20.51;48.13
8061;BME280;4073;42.626;25.386;2023-04-21T12:33:38;96642.06;;;20.14;49.54
8061;BME280;4073;42.626;25.386;2023-04-21T12:36:04;96641.09;;;19.94;51.39
8061;BME280;4073;42.626;25.386;2023-04-21T12:38:29;96640.56;;;19.89;50.33
8061;BME280;4073;42.626;25.386;2023-04-21T12:40:55;96635.97;;;19.65;51.94
8061;BME280;4073;42.626;25.386;2023-04-21T12:43:20;96644.78;;;19.74;49.91
8061;BME280;4073;42.626;25.386;2023-04-21T12:45:46;96635.88;;;20.01;50.47
8061;BME280;4073;42.626;25.386;2023-04-21T12:48:11;96634.78;;;20.30;48.57
8061;BME280;4073;42.626;25.386;2023-04-21T12:50:37;96640.19;;;20.58;49.29
8061;BME280;4073;42.626;25.386;2023-04-21T12:53:03;96631.75;;;20.47;48.61
8061;BME280;4073;42.626;25.386;2023-04-21T12:55:28;96634.06;;;20.17;48.87
8061;BME280;4073;42.626;25.386;2023-04-21T12:57:54;96614.50;;;20.00;48.90
8061;BME280;4073;42.626;25.386;2023-04-21T13:00:19;96644.41;;;20.27;48.30
8061;BME280;4073;42.626;25.386;2023-04-21T13:02:45;96624.66;;;20.42;46.99
8061;BME280;4073;42.626;25.386;2023-04-21T13:05:10;96637.72;;;20.96;46.54
8061;BME280;4073;42.626;25.386;2023-04-21T13:07:37;96630.94;;;20.90;46.05
8061;BME280;4073;42.626;25.386;2023-04-21T13:10:04;96629.44;;;20.92;47.34
8061;BME280;4073;42.626;25.386;2023-04-21T13:12:31;96617.22;;;20.55;45.67
8061;BME280;4073;42.626;25.386;2023-04-21T13:14:56;96636.72;;;20.45;45.82
8061;BME280;4073;42.626;25.386;2023-04-21T13:17:22;96606.66;;;20.22;47.67
8061;BME280;4073;42.626;25.386;2023-04-21T13:19:47;96637.19;;;20.19;48.21
8061;BME280;4073;42.626;25.386;2023-04-21T13:22:13;96634.59;;;20.23;47.74
8061;BME280;4073;42.626;25.386;2023-04-21T13:24:38;96643.06;;;20.21;49.24
8061;BME280;4073;42.626;25.386;2023-04-21T13:27:04;96629.94;;;19.84;49.42